createdAt,value
2023-05-06T00:00:29.913Z,94762.06
2023-05-06T00:02:31.587Z,94752.25
2023-05-06T00:04:33.384Z,94757.66
2023-05-06T00:06:35.110Z,94762.56
2023-05-06T00:08:36.700Z,94767.16
2023-05-06T00:10:38.279Z,94757.16
2023-05-06T00:12:39.898Z,94758.78
2023-05-06T00:14:41.469Z,94756.00
2023-05-06T00:16:43.090Z,94759.44
2023-05-06T00:18:44.660Z,94751.25
2023-05-06T00:20:46.218Z,94760.59
2023-05-06T00:22:48.014Z,94754.53
2023-05-06T00:24:49.542Z,94754.03
2023-05-06T00:26:51.110Z,94758.78
2023-05-06T00:28:52.678Z,94755.19
2023-05-06T00:30:54.210Z,94756.00
2023-05-06T00:32:56.159Z,94751.09
2023-05-06T00:34:57.832Z,94752.88
2023-05-06T00:36:59.447Z,94757.97
2023-05-06T00:39:00.960Z,94755.69
2023-05-06T00:41:03.450Z,94754.03
2023-05-06T00:43:05.249Z,94752.22
2023-05-06T00:45:25.859Z,94758.63
2023-05-06T00:47:27.730Z,94749.13
2023-05-06T00:49:29.608Z,94754.03
2023-05-06T00:51:31.294Z,94749.78
2023-05-06T00:53:33.491Z,94743.88
2023-05-06T00:55:35.112Z,94743.88
2023-05-06T00:57:36.732Z,94747.97
2023-05-06T00:59:38.536Z,94742.88
2023-05-06T01:01:40.493Z,94741.56
2023-05-06T01:03:42.312Z,94745.50
2023-05-06T01:05:55.258Z,94742.88
2023-05-06T01:08:02.753Z,94746.16
2023-05-06T01:10:23.106Z,94743.53
2023-05-06T01:12:51.214Z,94740.44
2023-05-06T01:15:17.178Z,94739.44
2023-05-06T01:17:19.548Z,94743.06
2023-05-06T01:19:34.926Z,94737.13
2023-05-06T01:21:38.016Z,94737.47
2023-05-06T01:23:57.921Z,94743.88
2023-05-06T01:26:00.004Z,94744.97
2023-05-06T01:28:01.689Z,94745.94
2023-05-06T01:30:03.932Z,94743.59
2023-05-06T01:32:30.132Z,94738.91
2023-05-06T01:34:42.165Z,94742.34
2023-05-06T01:37:02.212Z,94744.34
2023-05-06T01:39:09.686Z,94746.13
2023-05-06T01:41:16.026Z,94742.69
2023-05-06T01:43:18.833Z,94744.00
2023-05-06T01:45:21.082Z,94736.28
2023-05-06T01:47:23.306Z,94734.97
2023-05-06T01:49:26.162Z,94740.72
2023-05-06T01:51:28.317Z,94741.38
2023-05-06T01:53:29.917Z,94739.56
2023-05-06T01:55:32.245Z,94733.84
2023-05-06T01:57:33.871Z,94739.59
2023-05-06T01:59:35.441Z,94738.28
2023-05-06T02:01:37.027Z,94738.28
2023-05-06T02:03:38.729Z,94737.13
2023-05-06T02:05:40.349Z,94735.03
2023-05-06T02:07:42.004Z,94733.06
2023-05-06T02:09:43.597Z,94726.00
2023-05-06T02:11:45.323Z,94731.09
2023-05-06T02:13:47.034Z,94728.13
2023-05-06T02:15:55.604Z,94727.47
2023-05-06T02:17:57.356Z,94727.31
2023-05-06T02:19:59.359Z,94728.94
2023-05-06T02:22:00.892Z,94728.78
2023-05-06T02:24:02.548Z,94727.97
2023-05-06T02:26:04.486Z,94733.22
2023-05-06T02:28:06.163Z,94740.28
2023-05-06T02:30:08.120Z,94731.25
2023-05-06T02:32:09.681Z,94739.13
2023-05-06T02:34:11.337Z,94735.69
2023-05-06T02:36:13.144Z,94736.81
2023-05-06T02:38:14.856Z,94737.63
2023-05-06T02:40:16.516Z,94739.94
2023-05-06T02:42:18.236Z,94743.22
2023-05-06T02:44:19.899Z,94735.97
2023-05-06T02:46:21.590Z,94741.88
2023-05-06T02:48:23.664Z,94741.22
2023-05-06T02:50:25.522Z,94741.56
2023-05-06T02:52:27.101Z,94745.84
2023-05-06T02:54:28.746Z,94744.84
2023-05-06T02:56:31.193Z,94742.56
2023-05-06T02:58:32.821Z,94750.22
2023-05-06T03:00:34.766Z,94752.69
2023-05-06T03:02:36.575Z,94753.69
2023-05-06T03:04:38.256Z,94749.75
2023-05-06T03:06:40.154Z,94747.28
2023-05-06T03:08:41.731Z,94752.19
2023-05-06T03:10:43.273Z,94747.13
2023-05-06T03:12:44.848Z,94757.63
2023-05-06T03:14:46.447Z,94750.41
2023-05-06T03:16:48.196Z,94753.69
2023-05-06T03:18:49.812Z,94748.75
2023-05-06T03:20:51.545Z,94752.69
2023-05-06T03:22:53.504Z,94753.84
2023-05-06T03:24:55.061Z,94762.19
2023-05-06T03:26:58.551Z,94755.00
2023-05-06T03:29:00.198Z,94765.13
2023-05-06T03:31:01.771Z,94761.53
2023-05-06T03:33:03.555Z,94772.50
2023-05-06T03:35:06.763Z,94767.78
2023-05-06T03:37:08.340Z,94765.66
2023-05-06T03:39:10.326Z,94765.66
2023-05-06T03:41:12.073Z,94768.75
2023-05-06T03:43:13.649Z,94768.94
2023-05-06T03:45:15.312Z,94777.47
2023-05-06T03:47:17.317Z,94772.69
2023-05-06T03:49:20.718Z,94766.16
2023-05-06T03:51:22.471Z,94774.53
2023-05-06T03:53:24.104Z,94772.88
2023-05-06T03:55:25.796Z,94773.38
2023-05-06T03:57:27.339Z,94779.28
2023-05-06T03:59:28.933Z,94777.47
2023-05-06T04:01:30.591Z,94784.53
2023-05-06T04:03:32.259Z,94780.28
2023-05-06T04:05:33.947Z,94780.09
2023-05-06T04:07:35.653Z,94786.66
2023-05-06T04:09:37.310Z,94789.63
2023-05-06T04:11:38.885Z,94790.78
2023-05-06T04:13:40.459Z,94788.00
2023-05-06T04:15:42.677Z,94792.09
2023-05-06T04:17:44.297Z,94788.44
2023-05-06T04:19:46.041Z,94802.16
2023-05-06T04:21:47.637Z,94798.25
2023-05-06T04:23:49.677Z,94798.13
2023-05-06T04:25:51.286Z,94796.00
2023-05-06T04:27:53.389Z,94794.72
2023-05-06T04:29:54.987Z,94793.75
2023-05-06T04:31:56.971Z,94794.06
2023-05-06T04:33:59.208Z,94798.97
2023-05-06T04:36:00.963Z,94790.94
2023-05-06T04:38:02.596Z,94789.59
2023-05-06T04:40:04.683Z,94794.00
2023-05-06T04:42:06.488Z,94801.22
2023-05-06T04:44:08.095Z,94796.25
2023-05-06T04:46:10.647Z,94805.44
2023-05-06T04:48:12.352Z,94812.22
2023-05-06T04:50:14.065Z,94805.28
2023-05-06T04:52:15.629Z,94805.56
2023-05-06T04:54:17.254Z,94805.75
2023-05-06T04:56:18.914Z,94809.66
2023-05-06T04:58:20.602Z,94814.56
2023-05-06T05:00:22.729Z,94805.81
2023-05-06T05:02:24.444Z,94811.53
2023-05-06T05:04:26.571Z,94813.81
2023-05-06T05:06:28.104Z,94826.25
2023-05-06T05:08:29.800Z,94820.94
2023-05-06T05:10:31.524Z,94818.53
2023-05-06T05:12:33.104Z,94821.75
2023-05-06T05:14:34.731Z,94825.66
2023-05-06T05:16:36.386Z,94820.88
2023-05-06T05:18:38.042Z,94828.66
2023-05-06T05:20:39.687Z,94828.34
2023-05-06T05:22:41.262Z,94828.47
2023-05-06T05:24:42.914Z,94821.16
2023-05-06T05:26:44.518Z,94821.31
2023-05-06T05:28:46.229Z,94819.31
2023-05-06T05:30:47.840Z,94829.91
2023-05-06T05:32:49.553Z,94828.00
2023-05-06T05:34:51.288Z,94835.13
2023-05-06T05:36:53.036Z,94825.13
2023-05-06T05:38:54.619Z,94827.44
2023-05-06T05:40:56.286Z,94822.50
2023-05-06T05:42:57.850Z,94820.50
2023-05-06T05:45:00.136Z,94824.72
2023-05-06T05:47:02.475Z,94831.91
2023-05-06T05:49:04.019Z,94827.22
2023-05-06T05:51:05.806Z,94817.16
2023-05-06T05:53:07.367Z,94823.72
2023-05-06T05:55:09.603Z,94819.75
2023-05-06T05:57:11.365Z,94826.31
2023-05-06T05:59:13.032Z,94828.59
2023-05-06T06:01:14.726Z,94829.34
2023-05-06T06:03:18.138Z,94828.69
2023-05-06T06:05:19.812Z,94831.47
2023-05-06T06:07:21.366Z,94831.81
2023-05-06T06:09:22.994Z,94838.53
2023-05-06T06:11:26.897Z,94835.59
2023-05-06T06:13:29.116Z,94837.47
2023-05-06T06:15:31.753Z,94844.66
2023-05-06T06:17:33.333Z,94836.75
2023-05-06T06:19:34.877Z,94840.25
2023-05-06T06:21:36.894Z,94841.06
2023-05-06T06:23:38.478Z,94843.69
2023-05-06T06:25:40.072Z,94841.19
2023-05-06T06:27:41.688Z,94836.72
2023-05-06T06:29:43.305Z,94844.28
2023-05-06T06:31:44.934Z,94838.41
2023-05-06T06:33:46.501Z,94835.50
2023-05-06T06:35:48.142Z,94836.75
2023-05-06T06:37:49.833Z,94831.50
2023-05-06T06:39:51.358Z,94840.06
2023-05-06T06:41:56.684Z,94840.06
2023-05-06T06:43:58.303Z,94839.19
2023-05-06T06:46:00.238Z,94840.16
2023-05-06T06:48:01.938Z,94842.03
2023-05-06T06:50:03.734Z,94848.88
2023-05-06T06:52:06.035Z,94837.56
2023-05-06T06:54:07.703Z,94842.06
2023-05-06T06:56:12.266Z,94848.09
2023-05-06T06:58:14.028Z,94853.47
2023-05-06T07:00:16.092Z,94844.38
2023-05-06T07:02:17.694Z,94856.38
2023-05-06T07:04:19.453Z,94852.38
2023-05-06T07:06:21.100Z,94850.59
2023-05-06T07:08:22.774Z,94860.06
2023-05-06T07:10:24.443Z,94861.97
2023-05-06T07:12:26.926Z,94855.56
2023-05-06T07:14:28.554Z,94857.84
2023-05-06T07:16:30.144Z,94859.75
2023-05-06T07:18:31.802Z,94861.28
2023-05-06T07:20:33.545Z,94860.94
2023-05-06T07:22:35.147Z,94868.88
2023-05-06T07:24:36.795Z,94865.69
2023-05-06T07:26:38.452Z,94870.69
2023-05-06T07:28:40.062Z,94871.22
2023-05-06T07:30:42.227Z,94874.88
2023-05-06T07:32:43.854Z,94868.50
2023-05-06T07:34:45.476Z,94867.88
2023-05-06T07:36:47.077Z,94871.84
2023-05-06T07:38:48.708Z,94874.09
2023-05-06T07:40:51.382Z,94867.44
2023-05-06T07:42:53.110Z,94865.78
2023-05-06T07:44:54.694Z,94854.31
2023-05-06T07:46:56.429Z,94862.88
2023-05-06T07:48:58.142Z,94857.13
2023-05-06T07:51:00.045Z,94863.13
2023-05-06T07:53:01.884Z,94862.22
2023-05-06T07:55:04.379Z,94861.97
2023-05-06T07:57:05.974Z,94869.94
2023-05-06T07:59:07.587Z,94868.22
2023-05-06T08:01:09.243Z,94866.28
2023-05-06T08:03:10.952Z,94865.41
2023-05-06T08:05:13.636Z,94856.03
2023-05-06T08:07:15.893Z,94860.94
2023-05-06T08:09:22.738Z,94860.06
2023-05-06T08:11:24.929Z,94867.63
2023-05-06T08:13:27.088Z,94857.19
2023-05-06T08:15:28.825Z,94861.72
2023-05-06T08:17:30.437Z,94863.53
2023-05-06T08:19:32.223Z,94860.00
2023-05-06T08:21:33.831Z,94865.59
2023-05-06T08:23:35.433Z,94866.50
2023-05-06T08:25:37.073Z,94862.59
2023-05-06T08:27:38.695Z,94869.88
2023-05-06T08:29:40.365Z,94868.94
2023-05-06T08:31:42.889Z,94865.34
2023-05-06T08:33:44.615Z,94867.88
2023-05-06T08:35:46.924Z,94865.47
2023-05-06T08:37:48.483Z,94868.47
2023-05-06T08:39:50.255Z,94870.06
2023-05-06T08:41:52.780Z,94863.41
2023-05-06T08:43:55.083Z,94865.75
2023-05-06T08:45:56.767Z,94874.94
2023-05-06T08:47:58.500Z,94869.91
2023-05-06T08:50:01.467Z,94871.09
2023-05-06T08:52:06.716Z,94872.34
2023-05-06T08:54:08.756Z,94870.53
2023-05-06T08:56:13.586Z,94861.78
2023-05-06T08:58:16.927Z,94865.59
2023-05-06T09:00:18.797Z,94864.69
2023-05-06T09:02:22.452Z,94862.28
2023-05-06T09:04:23.944Z,94861.78
2023-05-06T09:06:25.606Z,94849.53
2023-05-06T09:08:27.235Z,94847.63
2023-05-06T09:10:33.375Z,94847.94
2023-05-06T09:12:37.999Z,94837.13
2023-05-06T09:14:40.244Z,94832.41
2023-05-06T09:16:43.847Z,94831.56
2023-05-06T09:18:45.485Z,94834.09
2023-05-06T09:20:48.477Z,94831.31
2023-05-06T09:22:50.823Z,94829.63
2023-05-06T09:24:57.011Z,94830.66
2023-05-06T09:26:58.789Z,94818.91
2023-05-06T09:29:01.259Z,94826.66
2023-05-06T09:31:03.063Z,94818.09
2023-05-06T09:33:05.294Z,94815.69
2023-05-06T09:35:07.695Z,94814.88
2023-05-06T09:37:09.402Z,94814.69
2023-05-06T09:39:11.078Z,94817.75
2023-05-06T09:41:13.497Z,94814.47
2023-05-06T09:43:15.707Z,94818.75
2023-05-06T09:45:17.932Z,94809.38
2023-05-06T09:47:20.832Z,94811.00
2023-05-06T09:49:22.389Z,94814.00
2023-05-06T09:51:24.201Z,94810.69
2023-05-06T09:53:27.582Z,94809.06
2023-05-06T09:55:29.564Z,94799.34
2023-05-06T09:57:32.046Z,94799.97
2023-05-06T09:59:33.720Z,94801.44
2023-05-06T10:01:37.655Z,94802.44
2023-05-06T10:03:40.025Z,94801.00
2023-05-06T10:05:42.424Z,94800.63
2023-05-06T10:07:45.355Z,94798.16
2023-05-06T10:09:47.083Z,94797.31
2023-05-06T10:11:48.774Z,94792.41
2023-05-06T10:13:50.581Z,94796.91
2023-05-06T10:15:52.322Z,94798.34
2023-05-06T10:17:54.356Z,94792.63
2023-05-06T10:19:58.925Z,94788.53
2023-05-06T10:22:08.333Z,94787.50
2023-05-06T10:24:12.035Z,94791.19
2023-05-06T10:26:13.545Z,94795.66
2023-05-06T10:28:27.767Z,94794.44
2023-05-06T10:30:33.882Z,94799.38
2023-05-06T10:32:38.625Z,94798.13
2023-05-06T10:34:45.035Z,94791.22
2023-05-06T10:36:48.934Z,94795.50
2023-05-06T10:38:54.908Z,94793.66
2023-05-06T10:40:57.284Z,94787.75
2023-05-06T10:43:20.892Z,94786.53
2023-05-06T10:45:22.609Z,94784.06
2023-05-06T10:47:24.324Z,94783.06
2023-05-06T10:49:26.153Z,94782.06
2023-05-06T10:51:28.639Z,94784.50
2023-05-06T10:54:18.751Z,94786.31
2023-05-06T10:56:20.524Z,94782.03
2023-05-06T10:58:22.104Z,94781.22
2023-05-06T11:00:24.214Z,94781.22
2023-05-06T11:02:26.281Z,94779.78
2023-05-06T11:04:30.357Z,94781.41
2023-05-06T11:06:34.080Z,94780.78
2023-05-06T11:08:35.582Z,94775.66
2023-05-06T11:10:37.510Z,94774.03
2023-05-06T11:12:50.684Z,94776.91
2023-05-06T11:14:52.369Z,94779.69
2023-05-06T11:16:55.545Z,94774.31
2023-05-06T11:18:57.248Z,94781.97
2023-05-06T11:21:02.414Z,94777.38
2023-05-06T11:23:04.079Z,94774.81
2023-05-06T11:25:06.630Z,94773.44
2023-05-06T11:27:09.385Z,94769.84
2023-05-06T11:29:11.404Z,94777.69
2023-05-06T11:31:13.956Z,94771.13
2023-05-06T11:33:19.481Z,94771.03
2023-05-06T11:35:22.953Z,94768.84
2023-05-06T11:37:29.297Z,94773.25
2023-05-06T11:39:40.486Z,94772.59
2023-05-06T11:41:42.760Z,94772.84
2023-05-06T11:43:50.057Z,94766.97
2023-05-06T11:45:51.748Z,94774.41
2023-05-06T11:47:54.578Z,94770.72
2023-05-06T11:49:56.507Z,94773.50
2023-05-06T11:51:58.180Z,94773.75
2023-05-06T11:54:10.400Z,94771.94
2023-05-06T11:56:12.038Z,94768.13
2023-05-06T11:58:33.127Z,94775.88
2023-05-06T12:00:34.668Z,94767.28
2023-05-06T12:02:36.337Z,94764.84
2023-05-06T12:04:45.234Z,94774.09
2023-05-06T12:06:46.858Z,94768.19
2023-05-06T12:08:48.443Z,94769.19
2023-05-06T12:10:51.397Z,94768.00
2023-05-06T12:12:53.086Z,94758.34
2023-05-06T12:14:54.872Z,94756.59
2023-05-06T12:16:56.791Z,94752.44
2023-05-06T12:18:58.482Z,94755.53
2023-05-06T12:21:02.793Z,94758.34
2023-05-06T12:23:14.792Z,94748.31
2023-05-06T12:25:16.535Z,94759.53
2023-05-06T12:27:34.820Z,94751.19
2023-05-06T12:29:36.460Z,94754.44
2023-05-06T12:31:38.110Z,94749.06
2023-05-06T12:33:46.523Z,94742.78
2023-05-06T12:35:49.025Z,94745.88
2023-05-06T12:37:50.599Z,94739.16
2023-05-06T12:39:52.169Z,94741.31
2023-05-06T12:41:54.164Z,94732.66
2023-05-06T12:43:55.758Z,94734.84
2023-05-06T12:46:05.244Z,94739.56
2023-05-06T12:48:07.255Z,94737.22
2023-05-06T12:50:09.487Z,94740.47
2023-05-06T12:52:11.659Z,94728.25
2023-05-06T12:54:39.459Z,94735.00
2023-05-06T12:56:41.036Z,94732.88
2023-05-06T12:58:42.618Z,94739.81
2023-05-06T13:00:44.590Z,94746.13
2023-05-06T13:02:46.702Z,94742.25
2023-05-06T13:04:49.448Z,94742.28
2023-05-06T13:06:54.088Z,94731.63
2023-05-06T13:08:55.753Z,94734.50
2023-05-06T13:10:57.403Z,94739.16
2023-05-06T13:12:58.992Z,94737.28
2023-05-06T13:15:00.702Z,94729.31
2023-05-06T13:17:04.857Z,94729.53
2023-05-06T13:19:07.222Z,94733.28
2023-05-06T13:21:13.178Z,94724.28
2023-05-06T13:23:15.092Z,94727.94
2023-05-06T13:25:16.667Z,94727.13
2023-05-06T13:27:18.286Z,94728.94
2023-05-06T13:29:19.947Z,94732.41
2023-05-06T13:31:22.093Z,94734.81
2023-05-06T13:33:23.779Z,94730.56
2023-05-06T13:35:25.342Z,94729.13
2023-05-06T13:37:26.887Z,94729.97
2023-05-06T13:39:28.529Z,94730.59
2023-05-06T13:41:30.076Z,94725.91
2023-05-06T13:43:31.657Z,94729.38
2023-05-06T13:45:33.717Z,94726.28
2023-05-06T13:47:35.328Z,94727.47
2023-05-06T13:49:36.984Z,94725.06
2023-05-06T13:51:38.596Z,94727.91
2023-05-06T13:53:40.233Z,94726.88
2023-05-06T13:55:43.593Z,94727.47
2023-05-06T13:57:45.190Z,94722.19
2023-05-06T13:59:46.853Z,94721.47
2023-05-06T14:01:50.068Z,94723.47
2023-05-06T14:03:52.700Z,94725.50
2023-05-06T14:05:54.810Z,94725.91
2023-05-06T14:07:56.373Z,94720.94
2023-05-06T14:09:58.555Z,94722.59
2023-05-06T14:12:00.147Z,94726.69
2023-05-06T14:14:02.486Z,94719.13
2023-05-06T14:16:04.226Z,94718.56
2023-05-06T14:18:05.958Z,94722.22
2023-05-06T14:20:09.539Z,94721.75
2023-05-06T14:22:11.270Z,94727.28
2023-05-06T14:24:12.941Z,94726.81
2023-05-06T14:26:14.588Z,94724.59
2023-05-06T14:28:16.186Z,94727.16
2023-05-06T14:30:17.925Z,94717.50
2023-05-06T14:32:19.520Z,94720.25
2023-05-06T14:34:21.194Z,94726.34
2023-05-06T14:36:22.768Z,94727.00
2023-05-06T14:38:24.346Z,94724.94
2023-05-06T14:40:26.061Z,94733.50
2023-05-06T14:42:27.644Z,94734.53
2023-05-06T14:44:29.302Z,94731.97
2023-05-06T14:46:31.043Z,94730.56
2023-05-06T14:48:32.712Z,94734.09
2023-05-06T14:50:34.540Z,94731.44
2023-05-06T14:52:38.893Z,94726.88
2023-05-06T14:54:42.363Z,94726.66
2023-05-06T14:56:49.515Z,94729.25
2023-05-06T14:58:51.554Z,94724.56
2023-05-06T15:00:53.255Z,94734.28
2023-05-06T15:02:54.872Z,94727.47
2023-05-06T15:04:56.550Z,94730.63
2023-05-06T15:06:58.208Z,94722.69
2023-05-06T15:08:59.825Z,94729.22
2023-05-06T15:11:03.820Z,94725.34
2023-05-06T15:13:05.981Z,94732.69
2023-05-06T15:15:08.362Z,94729.22
2023-05-06T15:17:10.146Z,94729.84
2023-05-06T15:19:11.785Z,94730.47
2023-05-06T15:21:13.891Z,94725.16
2023-05-06T15:23:15.474Z,94727.59
2023-05-06T15:25:30.290Z,94733.28
2023-05-06T15:27:37.356Z,94725.13
2023-05-06T15:29:41.970Z,94729.22
2023-05-06T15:31:46.792Z,94729.22
2023-05-06T15:33:48.478Z,94731.69
2023-05-06T15:35:50.486Z,94726.16
2023-05-06T15:37:55.552Z,94732.69
2023-05-06T15:39:57.220Z,94731.69
2023-05-06T15:41:59.754Z,94729.22
2023-05-06T15:44:02.536Z,94733.50
2023-05-06T15:46:04.224Z,94732.28
2023-05-06T15:48:06.034Z,94722.50
2023-05-06T15:50:17.834Z,94730.66
2023-05-06T15:52:29.577Z,94734.94
2023-05-06T15:54:31.582Z,94728.03
2023-05-06T15:56:39.397Z,94733.31
2023-05-06T15:58:43.729Z,94725.78
2023-05-06T16:00:45.363Z,94723.91
2023-05-06T16:02:47.116Z,94723.13
2023-05-06T16:04:49.103Z,94722.91
2023-05-06T16:06:50.825Z,94718.97
2023-05-06T16:08:52.483Z,94726.28
2023-05-06T16:10:54.199Z,94721.88
2023-05-06T16:12:55.807Z,94721.78
2023-05-06T16:14:57.663Z,94727.41
2023-05-06T16:16:59.443Z,94727.44
2023-05-06T16:19:01.042Z,94727.72
2023-05-06T16:21:02.742Z,94723.03
2023-05-06T16:23:05.317Z,94730.34
2023-05-06T16:25:07.152Z,94725.06
2023-05-06T16:27:08.729Z,94725.84
2023-05-06T16:29:10.595Z,94725.41
2023-05-06T16:31:12.265Z,94725.91
2023-05-06T16:33:14.575Z,94721.34
2023-05-06T16:35:17.658Z,94719.13
2023-05-06T16:37:19.269Z,94722.22
2023-05-06T16:39:20.889Z,94719.25
2023-05-06T16:41:22.491Z,94728.63
2023-05-06T16:43:24.148Z,94728.69
2023-05-06T16:45:25.829Z,94729.38
2023-05-06T16:47:27.617Z,94731.84
2023-05-06T16:49:29.480Z,94735.53
2023-05-06T16:51:32.083Z,94738.19
2023-05-06T16:53:33.701Z,94735.53
2023-05-06T16:55:35.281Z,94729.63
2023-05-06T16:57:36.891Z,94735.97
2023-05-06T16:59:38.583Z,94734.72
2023-05-06T17:01:40.249Z,94731.81
2023-05-06T17:03:41.912Z,94742.22
2023-05-06T17:05:43.605Z,94740.38
2023-05-06T17:07:45.601Z,94743.03
2023-05-06T17:09:47.160Z,94739.34
2023-05-06T17:11:49.419Z,94750.38
2023-05-06T17:13:51.048Z,94740.97
2023-05-06T17:15:52.740Z,94755.22
2023-05-06T17:17:54.432Z,94750.34
2023-05-06T17:19:57.653Z,94751.78
2023-05-06T17:21:59.259Z,94750.34
2023-05-06T17:24:01.023Z,94747.06
2023-05-06T17:26:06.414Z,94756.00
2023-05-06T17:28:11.408Z,94749.69
2023-05-06T17:30:14.632Z,94755.78
2023-05-06T17:32:16.393Z,94756.38
2023-05-06T17:34:17.977Z,94751.50
2023-05-06T17:36:20.799Z,94757.63
2023-05-06T17:38:22.398Z,94758.44
2023-05-06T17:40:24.590Z,94764.53
2023-05-06T17:42:27.556Z,94764.94
2023-05-06T17:44:29.246Z,94767.38
2023-05-06T17:46:31.357Z,94767.78
2023-05-06T17:48:33.046Z,94770.84
2023-05-06T17:50:34.665Z,94774.28
2023-05-06T17:52:36.281Z,94774.28
2023-05-06T17:54:38.235Z,94784.47
2023-05-06T17:56:39.843Z,94779.19
2023-05-06T17:58:41.465Z,94785.50
2023-05-06T18:00:43.137Z,94794.25
2023-05-06T18:02:45.181Z,94795.25
2023-05-06T18:04:47.555Z,94799.72
2023-05-06T18:06:49.111Z,94796.63
2023-05-06T18:08:50.792Z,94797.22
2023-05-06T18:10:52.366Z,94794.78
2023-05-06T18:12:55.666Z,94802.66
2023-05-06T18:14:57.668Z,94813.66
2023-05-06T18:16:59.262Z,94811.03
2023-05-06T18:19:02.649Z,94801.25
2023-05-06T18:21:04.248Z,94807.38
2023-05-06T18:23:07.498Z,94802.28
2023-05-06T18:25:09.571Z,94803.47
2023-05-06T18:27:12.988Z,94806.69
2023-05-06T18:29:14.819Z,94807.09
2023-05-06T18:31:16.498Z,94811.56
2023-05-06T18:33:18.473Z,94818.28
2023-05-06T18:35:20.098Z,94810.53
2023-05-06T18:37:21.714Z,94819.31
2023-05-06T18:39:24.067Z,94815.03
2023-05-06T18:41:25.815Z,94816.88
2023-05-06T18:43:27.511Z,94809.06
2023-05-06T18:45:29.582Z,94817.19
2023-05-06T18:47:32.248Z,94808.59
2023-05-06T18:49:35.380Z,94815.84
2023-05-06T18:51:37.338Z,94820.63
2023-05-06T18:53:39.013Z,94827.88
2023-05-06T18:55:40.608Z,94832.00
2023-05-06T18:57:42.211Z,94832.00
2023-05-06T18:59:43.738Z,94835.06
2023-05-06T19:01:46.078Z,94837.53
2023-05-06T19:03:47.728Z,94840.78
2023-05-06T19:05:49.432Z,94837.97
2023-05-06T19:07:51.595Z,94839.97
2023-05-06T19:09:53.210Z,94838.50
2023-05-06T19:11:55.526Z,94841.16
2023-05-06T19:13:57.122Z,94839.53
2023-05-06T19:15:58.905Z,94839.72
2023-05-06T19:18:00.543Z,94837.28
2023-05-06T19:20:02.145Z,94842.94
2023-05-06T19:22:04.222Z,94841.69
2023-05-06T19:24:06.397Z,94835.97
2023-05-06T19:26:10.979Z,94837.16
2023-05-06T19:28:12.568Z,94839.38
2023-05-06T19:30:14.387Z,94838.75
2023-05-06T19:32:16.004Z,94836.69
2023-05-06T19:34:17.605Z,94835.59
2023-05-06T19:36:19.141Z,94841.28
2023-05-06T19:38:21.514Z,94838.81
2023-05-06T19:40:23.333Z,94839.81
2023-05-06T19:42:24.892Z,94841.66
2023-05-06T19:44:26.940Z,94849.97
2023-05-06T19:46:28.601Z,94845.88
2023-05-06T19:48:30.406Z,94846.88
2023-05-06T19:50:33.495Z,94848.88
2023-05-06T19:52:35.193Z,94856.63
2023-05-06T19:54:36.782Z,94847.03
2023-05-06T19:56:39.137Z,94846.22
2023-05-06T19:58:41.068Z,94853.53
2023-05-06T20:00:43.448Z,94847.44
2023-05-06T20:02:45.608Z,94842.16
2023-05-06T20:04:47.266Z,94843.97
2023-05-06T20:06:48.892Z,94849.44
2023-05-06T20:08:50.517Z,94848.00
2023-05-06T20:10:52.245Z,94844.91
2023-05-06T20:12:56.081Z,94847.66
2023-05-06T20:14:59.475Z,94848.69
2023-05-06T20:17:02.565Z,94847.66
2023-05-06T20:19:04.339Z,94851.31
2023-05-06T20:21:06.302Z,94846.84
2023-05-06T20:23:07.894Z,94845.56
2023-05-06T20:25:17.579Z,94850.38
2023-05-06T20:27:22.701Z,94850.38
2023-05-06T20:29:24.356Z,94845.09
2023-05-06T20:31:26.008Z,94852.13
2023-05-06T20:33:27.675Z,94852.13
2023-05-06T20:35:29.266Z,94854.97
2023-05-06T20:37:31.366Z,94855.16
2023-05-06T20:39:33.206Z,94856.16
2023-05-06T20:41:34.828Z,94856.16
2023-05-06T20:43:36.530Z,94854.31
2023-05-06T20:45:38.181Z,94849.25
2023-05-06T20:47:39.864Z,94857.53
2023-05-06T20:49:41.540Z,94854.88
2023-05-06T20:51:43.183Z,94851.63
2023-05-06T20:53:46.224Z,94851.44
2023-05-06T20:55:47.941Z,94857.91
2023-05-06T20:57:49.993Z,94857.91
2023-05-06T20:59:52.629Z,94860.56
2023-05-06T21:01:54.687Z,94861.38
2023-05-06T21:03:56.698Z,94859.53
2023-05-06T21:05:58.286Z,94860.56
2023-05-06T21:07:59.912Z,94865.19
2023-05-06T21:10:03.864Z,94861.13
2023-05-06T21:12:05.686Z,94863.94
2023-05-06T21:14:07.511Z,94863.94
2023-05-06T21:16:09.122Z,94865.53
2023-05-06T21:18:11.046Z,94866.38
2023-05-06T21:20:13.183Z,94859.91
2023-05-06T21:22:15.389Z,94858.47
2023-05-06T21:24:17.077Z,94856.19
2023-05-06T21:26:18.607Z,94858.19
2023-05-06T21:28:20.187Z,94856.56
2023-05-06T21:30:22.269Z,94854.09
2023-05-06T21:32:23.890Z,94852.84
2023-05-06T21:34:26.561Z,94855.69
2023-05-06T21:36:28.140Z,94849.94
2023-05-06T21:38:29.696Z,94850.28
2023-05-06T21:40:31.510Z,94845.38
2023-05-06T21:42:33.145Z,94848.03
2023-05-06T21:44:34.719Z,94835.84
2023-05-06T21:46:37.819Z,94845.56
2023-05-06T21:48:39.642Z,94846.94
2023-05-06T21:50:41.248Z,94845.47
2023-05-06T21:52:42.927Z,94852.97
2023-05-06T21:54:46.122Z,94848.84
2023-05-06T21:56:47.700Z,94848.41
2023-05-06T21:58:49.388Z,94849.56
2023-05-06T22:00:52.290Z,94850.75
2023-05-06T22:02:54.518Z,94851.94
2023-05-06T22:04:56.634Z,94854.59
2023-05-06T22:06:58.284Z,94856.88
2023-05-06T22:08:59.842Z,94857.41
2023-05-06T22:11:01.838Z,94849.69
2023-05-06T22:13:03.834Z,94852.97
2023-05-06T22:15:07.101Z,94849.78
2023-05-06T22:17:10.570Z,94853.06
2023-05-06T22:19:14.346Z,94853.88
2023-05-06T22:21:15.941Z,94846.34
2023-05-06T22:23:19.217Z,94844.03
2023-05-06T22:25:20.918Z,94846.03
2023-05-06T22:27:22.640Z,94854.31
2023-05-06T22:29:24.173Z,94845.13
2023-05-06T22:31:25.911Z,94852.03
2023-05-06T22:33:27.825Z,94848.03
2023-05-06T22:35:29.412Z,94853.06
2023-05-06T22:37:31.151Z,94847.78
2023-05-06T22:39:32.734Z,94845.13
2023-05-06T22:41:34.343Z,94847.78
2023-05-06T22:43:35.907Z,94838.59
2023-05-06T22:45:37.546Z,94841.69
2023-05-06T22:47:39.356Z,94845.69
2023-05-06T22:49:40.905Z,94839.03
2023-05-06T22:51:42.555Z,94839.47
2023-05-06T22:53:44.287Z,94837.63
2023-05-06T22:55:45.814Z,94846.63
2023-05-06T22:57:50.107Z,94847.44
2023-05-06T22:59:51.701Z,94848.00
2023-05-06T23:01:53.364Z,94848.47
2023-05-06T23:03:55.098Z,94842.66
2023-05-06T23:05:56.957Z,94838.22
2023-05-06T23:07:58.543Z,94829.34
2023-05-06T23:10:00.208Z,94843.47
2023-05-06T23:12:02.788Z,94849.56
2023-05-06T23:14:04.698Z,94840.09
2023-05-06T23:16:07.816Z,94838.91
2023-05-06T23:18:09.461Z,94839.09
2023-05-06T23:20:12.903Z,94840.59
2023-05-06T23:22:14.578Z,94843.78
2023-05-06T23:24:16.139Z,94842.97
2023-05-06T23:26:17.882Z,94844.78
2023-05-06T23:28:19.728Z,94839.03
2023-05-06T23:30:21.356Z,94839.38
2023-05-06T23:32:22.975Z,94847.09
2023-05-06T23:34:24.641Z,94848.72
2023-05-06T23:36:27.395Z,94837.03
2023-05-06T23:38:29.117Z,94844.53
2023-05-06T23:40:30.802Z,94843.00
2023-05-06T23:42:32.403Z,94846.09
2023-05-06T23:44:33.982Z,94847.22
2023-05-06T23:46:35.759Z,94843.13
2023-05-06T23:48:37.680Z,94846.16
2023-05-06T23:50:39.396Z,94846.50
2023-05-06T23:52:41.217Z,94845.88
2023-05-06T23:54:42.910Z,94854.78
2023-05-06T23:56:44.880Z,94861.69
2023-05-06T23:58:46.444Z,94870.88
